PWSweather.com
Personal Weather Stations
Station Observations
AVONCOLORA
Wildridge Neighborhood, Avon, CO 81620

Wildridge NeighborhoodAvon, CO 81620

Lat: 39.659223, Lon: -106.549324

Elevation: 8150

Station Type: Davis Vantage View 2012

http://InternetVail.Com

Latest ConditionsUpdated 2:15:00 AM MST Friday, Feb 22, 2019
Currently Today's Max Today's Min Today's Average
Temperature 25.3°F-3.7°C 25.3°F-3.7°C 23.6°F-4.7°C 24.2°F-4.3°C
Dew Point 14.5°F-9.7°C 14.7°F-9.6°C 12.9°F-10.6°C 14.1°F-9.9°C
Winds 4.0 mph SE6.4 kmh SE 11.0 mph -17.7 kmh - - 3.0 mph 4.8 kmh
Wind Gusts 16.0 mph25.7 kmh 16.0 mph25.7 kmh - -
Humidity 63% 67% 62% 65%
Pressure 29.78 in1008.5 mb 29.83 in1010.2 mb 29.78 in1008.5 mb -
Hour Temp Dew Point Humidity Winds Wind Gusts Pressure Precip Precip Rate Daily Precip Total
02:15 AM 25.3°F-3.7°C 14.5°F-9.7°C 63% 4.0 mph SE6.4 kmh SE 16.0 mph25.7 kmh 29.78 in1008.5 mb 0.00 in0.0 mm 0.00 in0.0 mm 0.00 in0.0 mm
02:10 AM 25.1°F-3.8°C 14.6°F-9.7°C 64% 2.0 mph E3.2 kmh E 16.0 mph25.7 kmh 29.79 in1008.8 mb 0.00 in0.0 mm 0.00 in0.0 mm 0.00 in0.0 mm
02:05 AM 25.0°F-3.9°C 14.5°F-9.7°C 64% 2.0 mph E3.2 kmh E 16.0 mph25.7 kmh 29.79 in1008.8 mb 0.00 in0.0 mm 0.00 in0.0 mm 0.00 in0.0 mm
02:00 AM 24.7°F-4.1°C 14.6°F-9.7°C 65% 4.0 mph SE6.4 kmh SE 16.0 mph25.7 kmh 29.79 in1008.8 mb 0.00 in0.0 mm 0.00 in0.0 mm 0.00 in0.0 mm
01:55 AM 24.6°F-4.1°C 14.5°F-9.7°C 65% 7.0 mph E11.3 kmh E 16.0 mph25.7 kmh 29.79 in1008.8 mb 0.00 in0.0 mm 0.00 in0.0 mm 0.00 in0.0 mm
01:50 AM 24.5°F-4.2°C 14.4°F-9.8°C 65% 2.0 mph ESE3.2 kmh ESE 16.0 mph25.7 kmh 29.79 in1008.8 mb 0.00 in0.0 mm 0.00 in0.0 mm 0.00 in0.0 mm
01:45 AM 24.4°F-4.2°C 14.7°F-9.6°C 66% 5.0 mph E8.0 kmh E 16.0 mph25.7 kmh 29.79 in1008.8 mb 0.00 in0.0 mm 0.00 in0.0 mm 0.00 in0.0 mm
01:40 AM 24.1°F-4.4°C 14.4°F-9.8°C 66% 11.0 mph E17.7 kmh E 16.0 mph25.7 kmh 29.79 in1008.8 mb 0.00 in0.0 mm 0.00 in0.0 mm 0.00 in0.0 mm
01:35 AM 24.0°F-4.4°C 14.3°F-9.8°C 66% 1.0 mph ESE1.6 kmh ESE 16.0 mph25.7 kmh 29.79 in1008.8 mb 0.00 in0.0 mm 0.00 in0.0 mm 0.00 in0.0 mm
01:30 AM 23.9°F-4.5°C 14.5°F-9.7°C 67% 3.0 mph NNW4.8 kmh NNW 16.0 mph25.7 kmh 29.80 in1009.1 mb 0.00 in0.0 mm 0.00 in0.0 mm 0.00 in0.0 mm
01:25 AM 23.8°F-4.6°C 14.4°F-9.8°C 67% 2.0 mph ESE3.2 kmh ESE 16.0 mph25.7 kmh 29.80 in1009.1 mb 0.00 in0.0 mm 0.00 in0.0 mm 0.00 in0.0 mm
01:20 AM 23.7°F-4.6°C 14.4°F-9.8°C 67% Calm Calm 16.0 mph25.7 kmh 29.80 in1009.1 mb 0.00 in0.0 mm 0.00 in0.0 mm 0.00 in0.0 mm
01:15 AM 23.7°F-4.6°C 14.4°F-9.8°C 67% 1.0 mph E1.6 kmh E 16.0 mph25.7 kmh 29.81 in1009.5 mb 0.00 in0.0 mm 0.00 in0.0 mm 0.00 in0.0 mm
01:10 AM 23.6°F-4.7°C 14.3°F-9.8°C 67% 1.0 mph E1.6 kmh E 16.0 mph25.7 kmh 29.80 in1009.1 mb 0.00 in0.0 mm 0.00 in0.0 mm 0.00 in0.0 mm
01:05 AM 23.6°F-4.7°C 14.3°F-9.8°C 67% 5.0 mph E8.0 kmh E 16.0 mph25.7 kmh 29.80 in1009.1 mb 0.00 in0.0 mm 0.00 in0.0 mm 0.00 in0.0 mm
01:00 AM 23.6°F-4.7°C 14.3°F-9.8°C 67% 3.0 mph SE4.8 kmh SE 16.0 mph25.7 kmh 29.80 in1009.1 mb 0.00 in0.0 mm 0.00 in0.0 mm 0.00 in0.0 mm
12:55 AM 23.8°F-4.6°C 14.4°F-9.8°C 67% 5.0 mph E8.0 kmh E 16.0 mph25.7 kmh 29.81 in1009.5 mb 0.00 in0.0 mm 0.00 in0.0 mm 0.00 in0.0 mm
12:50 AM 23.8°F-4.6°C 14.4°F-9.8°C 67% 1.0 mph N1.6 kmh N 16.0 mph25.7 kmh 29.81 in1009.5 mb 0.00 in0.0 mm 0.00 in0.0 mm 0.00 in0.0 mm
12:45 AM 23.9°F-4.5°C 14.2°F-9.9°C 66% 2.0 mph ESE3.2 kmh ESE 16.0 mph25.7 kmh 29.81 in1009.5 mb 0.00 in0.0 mm 0.00 in0.0 mm 0.00 in0.0 mm
12:40 AM 24.1°F-4.4°C 14.0°F-10.0°C 65% 3.0 mph E4.8 kmh E 16.0 mph25.7 kmh 29.81 in1009.5 mb 0.00 in0.0 mm 0.00 in0.0 mm 0.00 in0.0 mm
12:35 AM 24.4°F-4.2°C 14.0°F-10.0°C 64% 5.0 mph E8.0 kmh E 16.0 mph25.7 kmh 29.81 in1009.5 mb 0.00 in0.0 mm 0.00 in0.0 mm 0.00 in0.0 mm
12:30 AM 24.5°F-4.2°C 13.7°F-10.2°C 63% 1.0 mph ENE1.6 kmh ENE 16.0 mph25.7 kmh 29.81 in1009.5 mb 0.00 in0.0 mm 0.00 in0.0 mm 0.00 in0.0 mm
12:25 AM 24.5°F-4.2°C 13.7°F-10.2°C 63% Calm Calm 10.0 mph16.1 kmh 29.81 in1009.5 mb 0.00 in0.0 mm 0.00 in0.0 mm 0.00 in0.0 mm
12:20 AM 24.4°F-4.2°C 13.6°F-10.2°C 63% 1.0 mph E1.6 kmh E 10.0 mph16.1 kmh 29.81 in1009.5 mb 0.00 in0.0 mm 0.00 in0.0 mm 0.00 in0.0 mm
12:15 AM 24.3°F-4.3°C 13.2°F-10.4°C 62% 2.0 mph ESE3.2 kmh ESE 10.0 mph16.1 kmh 29.81 in1009.5 mb 0.00 in0.0 mm 0.00 in0.0 mm 0.00 in0.0 mm
12:10 AM 24.2°F-4.3°C 13.1°F-10.5°C 62% 2.0 mph E3.2 kmh E 10.0 mph16.1 kmh 29.81 in1009.5 mb 0.00 in0.0 mm 0.00 in0.0 mm 0.00 in0.0 mm
12:05 AM 24.1°F-4.4°C 13.0°F-10.6°C 62% 7.0 mph E11.3 kmh E 7.0 mph11.3 kmh 29.82 in1009.8 mb 0.00 in0.0 mm 0.00 in0.0 mm 0.00 in0.0 mm
12:00 AM 24.0°F-4.4°C 12.9°F-10.6°C 62% 1.0 mph NNW1.6 kmh NNW 1.0 mph1.6 kmh 29.83 in1010.2 mb 0.00 in0.0 mm 0.00 in0.0 mm 0.00 in0.0 mm